sensor_id;sensor_type;location;lat;lon;timestamp;pressure;altitude;pressure_sealevel;temperature;humidity
62712;BME280;48772;55.586;37.730;2023-04-27T00:02:04;98551.69;;;10.89;100.00
62712;BME280;48772;55.586;37.730;2023-04-27T00:04:31;98522.13;;;10.65;100.00
62712;BME280;48772;55.586;37.730;2023-04-27T00:06:57;98553.66;;;10.87;100.00
62712;BME280;48772;55.586;37.730;2023-04-27T00:09:22;98540.00;;;10.73;100.00
62712;BME280;48772;55.586;37.730;2023-04-27T00:11:48;98560.75;;;10.79;100.00
62712;BME280;48772;55.586;37.730;2023-04-27T00:14:14;98565.22;;;10.78;100.00
62712;BME280;48772;55.586;37.730;2023-04-27T00:16:40;98560.75;;;10.79;100.00
62712;BME280;48772;55.586;37.730;2023-04-27T00:19:05;98555.78;;;10.84;100.00
62712;BME280;48772;55.586;37.730;2023-04-27T00:21:33;98543.44;;;10.83;100.00
62712;BME280;48772;55.586;37.730;2023-04-27T00:23:59;98556.56;;;10.94;100.00
62712;BME280;48772;55.586;37.730;2023-04-27T00:26:24;98547.72;;;10.93;100.00
62712;BME280;48772;55.586;37.730;2023-04-27T00:28:52;98559.59;;;10.99;100.00
62712;BME280;48772;55.586;37.730;2023-04-27T00:31:17;98548.34;;;11.05;100.00
62712;BME280;48772;55.586;37.730;2023-04-27T00:33:43;98554.03;;;11.10;100.00
62712;BME280;48772;55.586;37.730;2023-04-27T00:36:09;98557.69;;;11.09;100.00
62712;BME280;48772;55.586;37.730;2023-04-27T00:38:34;98553.22;;;11.09;100.00
62712;BME280;48772;55.586;37.730;2023-04-27T00:41:04;98548.94;;;11.16;100.00
62712;BME280;48772;55.586;37.730;2023-04-27T00:43:32;98483.72;;;10.76;100.00
62712;BME280;48772;55.586;37.730;2023-04-27T00:45:58;98556.41;;;11.13;100.00
62712;BME280;48772;55.586;37.730;2023-04-27T00:48:25;98560.53;;;11.07;100.00
62712;BME280;48772;55.586;37.730;2023-04-27T00:50:51;98528.03;;;10.77;100.00
62712;BME280;48772;55.586;37.730;2023-04-27T00:53:17;98548.13;;;10.81;100.00
62712;BME280;48772;55.586;37.730;2023-04-27T00:55:43;98544.75;;;10.79;100.00
62712;BME280;48772;55.586;37.730;2023-04-27T00:58:09;98538.28;;;10.81;100.00
62712;BME280;48772;55.586;37.730;2023-04-27T01:00:36;98561.13;;;10.84;100.00
62712;BME280;48772;55.586;37.730;2023-04-27T01:03:03;98562.72;;;10.77;100.00
62712;BME280;48772;55.586;37.730;2023-04-27T01:05:29;98559.75;;;10.80;100.00
62712;BME280;48772;55.586;37.730;2023-04-27T01:07:55;98553.13;;;10.84;100.00
62712;BME280;48772;55.586;37.730;2023-04-27T01:10:21;98559.44;;;10.83;100.00
62712;BME280;48772;55.586;37.730;2023-04-27T01:12:47;98545.19;;;10.57;100.00
62712;BME280;48772;55.586;37.730;2023-04-27T01:15:12;98575.38;;;10.75;100.00
62712;BME280;48772;55.586;37.730;2023-04-27T01:17:38;98562.13;;;10.83;100.00
62712;BME280;48772;55.586;37.730;2023-04-27T01:20:06;98556.84;;;10.91;100.00
62712;BME280;48772;55.586;37.730;2023-04-27T01:22:35;98552.16;;;11.02;100.00
62712;BME280;48772;55.586;37.730;2023-04-27T01:25:02;98530.25;;;10.99;100.00
62712;BME280;48772;55.586;37.730;2023-04-27T01:27:31;98515.56;;;10.95;100.00
62712;BME280;48772;55.586;37.730;2023-04-27T01:29:57;98549.47;;;11.20;100.00
62712;BME280;48772;55.586;37.730;2023-04-27T01:32:23;98545.78;;;11.21;100.00
62712;BME280;48772;55.586;37.730;2023-04-27T01:34:51;98546.50;;;11.23;100.00
62712;BME280;48772;55.586;37.730;2023-04-27T01:37:17;98522.56;;;11.13;100.00
62712;BME280;48772;55.586;37.730;2023-04-27T01:39:43;98541.22;;;11.31;100.00
62712;BME280;48772;55.586;37.730;2023-04-27T01:42:09;98532.22;;;11.32;100.00
62712;BME280;48772;55.586;37.730;2023-04-27T01:44:38;98536.53;;;11.25;100.00
62712;BME280;48772;55.586;37.730;2023-04-27T01:47:04;98542.66;;;10.73;100.00
62712;BME280;48772;55.586;37.730;2023-04-27T01:49:29;98551.00;;;10.70;100.00
62712;BME280;48772;55.586;37.730;2023-04-27T01:51:55;98549.56;;;10.75;100.00
62712;BME280;48772;55.586;37.730;2023-04-27T01:54:21;98563.13;;;10.82;100.00
62712;BME280;48772;55.586;37.730;2023-04-27T01:56:46;98562.13;;;10.83;100.00
62712;BME280;48772;55.586;37.730;2023-04-27T01:59:12;98558.22;;;10.77;100.00
62712;BME280;48772;55.586;37.730;2023-04-27T02:01:39;98551.34;;;10.57;100.00
62712;BME280;48772;55.586;37.730;2023-04-27T02:04:05;98546.84;;;10.58;100.00
62712;BME280;48772;55.586;37.730;2023-04-27T02:06:31;98566.06;;;10.79;100.00
62712;BME280;48772;55.586;37.730;2023-04-27T02:08:57;98559.97;;;10.69;100.00
62712;BME280;48772;55.586;37.730;2023-04-27T02:11:22;98568.09;;;10.67;100.00
62712;BME280;48772;55.586;37.730;2023-04-27T02:13:49;98557.78;;;10.64;100.00
62712;BME280;48772;55.586;37.730;2023-04-27T02:16:15;98590.38;;;10.76;100.00
62712;BME280;48772;55.586;37.730;2023-04-27T02:18:41;98583.44;;;10.83;100.00
62712;BME280;48772;55.586;37.730;2023-04-27T02:21:09;98589.09;;;10.80;100.00
62712;BME280;48772;55.586;37.730;2023-04-27T02:23:35;98584.00;;;10.86;100.00
62712;BME280;48772;55.586;37.730;2023-04-27T02:26:01;98548.78;;;10.65;100.00
62712;BME280;48772;55.586;37.730;2023-04-27T02:28:27;98573.69;;;10.74;100.00
62712;BME280;48772;55.586;37.730;2023-04-27T02:30:53;98594.53;;;10.61;100.00
62712;BME280;48772;55.586;37.730;2023-04-27T02:33:19;98605.53;;;10.48;100.00
62712;BME280;48772;55.586;37.730;2023-04-27T02:35:45;98580.50;;;10.32;100.00
62712;BME280;48772;55.586;37.730;2023-04-27T02:38:11;98597.50;;;10.58;100.00
62712;BME280;48772;55.586;37.730;2023-04-27T02:40:37;98605.78;;;10.82;100.00
62712;BME280;48772;55.586;37.730;2023-04-27T02:43:05;98575.06;;;10.78;100.00
62712;BME280;48772;55.586;37.730;2023-04-27T02:45:31;98593.81;;;10.86;100.00
62712;BME280;48772;55.586;37.730;2023-04-27T02:47:57;98602.50;;;10.88;100.00
62712;BME280;48772;55.586;37.730;2023-04-27T02:50:23;98592.38;;;10.74;100.00
62712;BME280;48772;55.586;37.730;2023-04-27T02:52:48;98590.44;;;10.84;100.00
62712;BME280;48772;55.586;37.730;2023-04-27T02:55:14;98603.97;;;11.00;100.00
62712;BME280;48772;55.586;37.730;2023-04-27T02:57:40;98597.66;;;11.01;100.00
62712;BME280;48772;55.586;37.730;2023-04-27T03:00:06;98602.97;;;11.01;100.00
62712;BME280;48772;55.586;37.730;2023-04-27T03:02:34;98607.47;;;11.00;100.00
62712;BME280;48772;55.586;37.730;2023-04-27T03:04:59;98606.94;;;10.97;100.00
62712;BME280;48772;55.586;37.730;2023-04-27T03:07:25;98627.47;;;11.14;100.00
62712;BME280;48772;55.586;37.730;2023-04-27T03:09:51;98634.41;;;11.07;100.00
62712;BME280;48772;55.586;37.730;2023-04-27T03:12:17;98627.13;;;10.99;100.00
62712;BME280;48772;55.586;37.730;2023-04-27T03:14:43;98638.19;;;11.04;100.00
62712;BME280;48772;55.586;37.730;2023-04-27T03:17:08;98622.94;;;10.97;100.00
62712;BME280;48772;55.586;37.730;2023-04-27T03:19:34;98644.22;;;11.24;100.00
62712;BME280;48772;55.586;37.730;2023-04-27T03:22:00;98632.81;;;11.31;100.00
62712;BME280;48772;55.586;37.730;2023-04-27T03:24:26;98632.38;;;11.36;100.00
62712;BME280;48772;55.586;37.730;2023-04-27T03:26:52;98639.50;;;11.53;100.00
62712;BME280;48772;55.586;37.730;2023-04-27T03:29:20;98607.03;;;11.40;100.00
62712;BME280;48772;55.586;37.730;2023-04-27T03:31:45;98630.88;;;11.59;100.00
62712;BME280;48772;55.586;37.730;2023-04-27T03:34:11;98641.00;;;11.65;100.00
62712;BME280;48772;55.586;37.730;2023-04-27T03:36:38;98635.31;;;11.68;100.00
62712;BME280;48772;55.586;37.730;2023-04-27T03:39:04;98647.06;;;11.75;100.00
62712;BME280;48772;55.586;37.730;2023-04-27T03:41:30;98644.34;;;11.67;100.00
62712;BME280;48772;55.586;37.730;2023-04-27T03:43:56;98635.69;;;11.90;100.00
62712;BME280;48772;55.586;37.730;2023-04-27T03:46:22;98635.28;;;12.03;100.00
62712;BME280;48772;55.586;37.730;2023-04-27T03:48:48;98650.09;;;12.23;100.00
62712;BME280;48772;55.586;37.730;2023-04-27T03:51:14;98631.28;;;12.07;100.00
62712;BME280;48772;55.586;37.730;2023-04-27T03:53:42;98644.38;;;12.18;100.00
62712;BME280;48772;55.586;37.730;2023-04-27T03:56:08;98659.81;;;12.24;100.00
62712;BME280;48772;55.586;37.730;2023-04-27T03:58:33;98655.06;;;12.18;100.00
62712;BME280;48772;55.586;37.730;2023-04-27T04:01:12;98655.50;;;12.31;100.00
62712;BME280;48772;55.586;37.730;2023-04-27T04:03:39;98661.19;;;12.36;100.00
62712;BME280;48772;55.586;37.730;2023-04-27T04:06:07;98654.69;;;12.38;100.00
62712;BME280;48772;55.586;37.730;2023-04-27T04:08:33;98664.66;;;12.54;100.00
62712;BME280;48772;55.586;37.730;2023-04-27T04:10:59;98637.00;;;12.37;100.00
62712;BME280;48772;55.586;37.730;2023-04-27T04:13:27;98651.88;;;12.40;100.00
62712;BME280;48772;55.586;37.730;2023-04-27T04:16:01;98669.41;;;12.68;100.00
62712;BME280;48772;55.586;37.730;2023-04-27T04:18:26;98645.41;;;12.50;100.00
62712;BME280;48772;55.586;37.730;2023-04-27T04:20:52;98662.69;;;12.64;100.00
62712;BME280;48772;55.586;37.730;2023-04-27T04:23:18;98667.44;;;12.78;100.00
62712;BME280;48772;55.586;37.730;2023-04-27T04:25:44;98682.38;;;12.88;100.00
62712;BME280;48772;55.586;37.730;2023-04-27T04:28:12;98657.72;;;12.77;100.00
62712;BME280;48772;55.586;37.730;2023-04-27T04:30:38;98654.28;;;12.92;100.00
62712;BME280;48772;55.586;37.730;2023-04-27T04:33:05;98674.44;;;13.12;100.00
62712;BME280;48772;55.586;37.730;2023-04-27T04:35:31;98664.09;;;13.09;100.00
62712;BME280;48772;55.586;37.730;2023-04-27T04:38:00;98691.75;;;13.26;100.00
62712;BME280;48772;55.586;37.730;2023-04-27T04:40:26;98677.03;;;13.30;100.00
62712;BME280;48772;55.586;37.730;2023-04-27T04:42:51;98678.72;;;13.47;100.00
62712;BME280;48772;55.586;37.730;2023-04-27T04:45:18;98667.34;;;13.45;100.00
62712;BME280;48772;55.586;37.730;2023-04-27T04:47:44;98647.44;;;13.40;100.00
62712;BME280;48772;55.586;37.730;2023-04-27T04:50:10;98669.72;;;13.64;100.00
62712;BME280;48772;55.586;37.730;2023-04-27T04:52:36;98657.81;;;13.67;100.00
62712;BME280;48772;55.586;37.730;2023-04-27T04:55:03;98671.41;;;13.89;100.00
62712;BME280;48772;55.586;37.730;2023-04-27T04:57:30;98671.22;;;14.07;100.00
62712;BME280;48772;55.586;37.730;2023-04-27T04:59:56;98676.06;;;14.19;100.00
62712;BME280;48772;55.586;37.730;2023-04-27T05:02:22;98692.88;;;14.29;100.00
62712;BME280;48772;55.586;37.730;2023-04-27T05:04:48;98687.66;;;14.36;100.00
62712;BME280;48772;55.586;37.730;2023-04-27T05:07:16;98607.19;;;14.12;100.00
62712;BME280;48772;55.586;37.730;2023-04-27T05:09:42;98691.72;;;14.78;100.00
62712;BME280;48772;55.586;37.730;2023-04-27T05:12:08;98686.28;;;14.94;100.00
62712;BME280;48772;55.586;37.730;2023-04-27T05:14:34;98687.31;;;14.93;100.00
62712;BME280;48772;55.586;37.730;2023-04-27T05:17:00;98690.94;;;15.08;100.00
62712;BME280;48772;55.586;37.730;2023-04-27T05:19:29;98692.69;;;15.32;100.00
62712;BME280;48772;55.586;37.730;2023-04-27T05:21:56;98685.94;;;15.44;100.00
62712;BME280;48772;55.586;37.730;2023-04-27T05:24:24;98690.00;;;15.62;100.00
62712;BME280;48772;55.586;37.730;2023-04-27T05:26:51;98693.25;;;15.80;100.00
62712;BME280;48772;55.586;37.730;2023-04-27T05:29:17;98676.81;;;15.75;100.00
62712;BME280;48772;55.586;37.730;2023-04-27T05:31:43;98687.88;;;16.03;100.00
62712;BME280;48772;55.586;37.730;2023-04-27T05:34:11;98688.44;;;16.13;100.00
62712;BME280;48772;55.586;37.730;2023-04-27T05:36:38;98677.50;;;16.14;100.00
62712;BME280;48772;55.586;37.730;2023-04-27T05:39:03;98695.53;;;16.28;100.00
62712;BME280;48772;55.586;37.730;2023-04-27T05:41:29;98687.31;;;16.44;100.00
62712;BME280;48772;55.586;37.730;2023-04-27T05:43:55;98684.00;;;16.42;100.00
62712;BME280;48772;55.586;37.730;2023-04-27T05:46:21;98669.59;;;16.50;100.00
62712;BME280;48772;55.586;37.730;2023-04-27T05:48:47;98683.31;;;16.78;100.00
62712;BME280;48772;55.586;37.730;2023-04-27T05:51:13;98698.78;;;16.90;100.00
62712;BME280;48772;55.586;37.730;2023-04-27T05:53:39;98704.53;;;17.02;100.00
62712;BME280;48772;55.586;37.730;2023-04-27T05:56:05;98677.78;;;17.00;100.00
62712;BME280;48772;55.586;37.730;2023-04-27T05:58:36;98698.13;;;17.03;100.00
62712;BME280;48772;55.586;37.730;2023-04-27T06:01:02;98677.25;;;17.05;100.00
62712;BME280;48772;55.586;37.730;2023-04-27T06:03:29;98691.63;;;17.12;100.00
62712;BME280;48772;55.586;37.730;2023-04-27T06:05:57;98690.59;;;17.13;100.00
62712;BME280;48772;55.586;37.730;2023-04-27T06:08:23;98693.47;;;17.26;100.00
62712;BME280;48772;55.586;37.730;2023-04-27T06:10:49;98692.91;;;17.45;100.00
62712;BME280;48772;55.586;37.730;2023-04-27T06:13:16;98691.13;;;17.52;100.00
62712;BME280;48772;55.586;37.730;2023-04-27T06:15:42;98700.63;;;17.69;100.00
62712;BME280;48772;55.586;37.730;2023-04-27T06:18:08;98673.03;;;17.67;100.00
62712;BME280;48772;55.586;37.730;2023-04-27T06:20:34;98683.03;;;17.73;100.00
62712;BME280;48772;55.586;37.730;2023-04-27T06:23:01;98691.53;;;17.91;100.00
62712;BME280;48772;55.586;37.730;2023-04-27T06:25:46;98697.22;;;18.17;100.00
62712;BME280;48772;55.586;37.730;2023-04-27T06:28:11;98703.09;;;18.27;100.00
62712;BME280;48772;55.586;37.730;2023-04-27T06:30:37;98698.78;;;18.32;100.00
62712;BME280;48772;55.586;37.730;2023-04-27T06:33:03;98665.44;;;18.40;100.00
62712;BME280;48772;55.586;37.730;2023-04-27T06:35:29;98689.44;;;18.56;100.00
62712;BME280;48772;55.586;37.730;2023-04-27T06:37:56;98696.41;;;18.44;100.00
62712;BME280;48772;55.586;37.730;2023-04-27T06:40:24;98708.50;;;18.48;100.00
62712;BME280;48772;55.586;37.730;2023-04-27T06:42:51;98693.81;;;18.57;100.00
62712;BME280;48772;55.586;37.730;2023-04-27T06:45:17;98702.50;;;18.80;100.00
62712;BME280;48772;55.586;37.730;2023-04-27T06:47:44;98707.72;;;18.81;100.00
62712;BME280;48772;55.586;37.730;2023-04-27T06:50:10;98712.22;;;19.08;96.20
62712;BME280;48772;55.586;37.730;2023-04-27T06:52:35;98719.94;;;19.11;92.12
62712;BME280;48772;55.586;37.730;2023-04-27T06:55:01;98701.56;;;19.28;95.16
62712;BME280;48772;55.586;37.730;2023-04-27T06:57:30;98703.13;;;19.16;95.47
62712;BME280;48772;55.586;37.730;2023-04-27T06:59:56;98715.38;;;19.46;93.45
62712;BME280;48772;55.586;37.730;2023-04-27T07:02:22;98693.66;;;19.26;91.26
62712;BME280;48772;55.586;37.730;2023-04-27T07:04:48;98683.25;;;19.30;85.69
62712;BME280;48772;55.586;37.730;2023-04-27T07:07:13;98721.63;;;19.53;86.08
62712;BME280;48772;55.586;37.730;2023-04-27T07:09:39;98707.94;;;19.74;87.96
62712;BME280;48772;55.586;37.730;2023-04-27T07:12:05;98718.63;;;19.82;86.42
62712;BME280;48772;55.586;37.730;2023-04-27T07:14:31;98701.94;;;19.72;90.26
62712;BME280;48772;55.586;37.730;2023-04-27T07:16:58;98692.16;;;19.78;92.03
62712;BME280;48772;55.586;37.730;2023-04-27T07:19:24;98719.88;;;19.93;93.06
62712;BME280;48772;55.586;37.730;2023-04-27T07:21:50;98712.44;;;20.14;92.78
62712;BME280;48772;55.586;37.730;2023-04-27T07:24:16;98704.91;;;20.03;94.61
62712;BME280;48772;55.586;37.730;2023-04-27T07:26:42;98691.22;;;20.11;97.97
62712;BME280;48772;55.586;37.730;2023-04-27T07:29:07;98710.19;;;20.24;100.00
62712;BME280;48772;55.586;37.730;2023-04-27T07:31:56;98697.69;;;20.43;96.74
62712;BME280;48772;55.586;37.730;2023-04-27T07:34:22;98715.19;;;20.73;90.57
62712;BME280;48772;55.586;37.730;2023-04-27T07:36:48;98706.22;;;20.72;92.73
62712;BME280;48772;55.586;37.730;2023-04-27T07:39:14;98704.34;;;20.66;88.40
62712;BME280;48772;55.586;37.730;2023-04-27T07:41:40;98697.47;;;20.57;91.42
62712;BME280;48772;55.586;37.730;2023-04-27T07:44:05;98725.59;;;20.69;87.33
62712;BME280;48772;55.586;37.730;2023-04-27T07:49:19;98714.75;;;21.02;80.65
62712;BME280;48772;55.586;37.730;2023-04-27T07:51:45;98713.91;;;21.01;81.36
62712;BME280;48772;55.586;37.730;2023-04-27T07:54:29;98711.59;;;21.11;78.46
62712;BME280;48772;55.586;37.730;2023-04-27T07:56:55;98730.09;;;21.34;77.20
62712;BME280;48772;55.586;37.730;2023-04-27T07:59:21;98716.75;;;21.32;79.00
62712;BME280;48772;55.586;37.730;2023-04-27T08:01:47;98729.13;;;21.66;72.93
62712;BME280;48772;55.586;37.730;2023-04-27T08:04:13;98718.91;;;21.74;74.25
62712;BME280;48772;55.586;37.730;2023-04-27T08:06:40;98698.47;;;21.72;72.15
62712;BME280;48772;55.586;37.730;2023-04-27T08:09:06;98717.75;;;21.95;72.43
62712;BME280;48772;55.586;37.730;2023-04-27T08:11:32;98710.31;;;21.77;69.58
62712;BME280;48772;55.586;37.730;2023-04-27T08:13:58;98730.78;;;21.80;71.32
62712;BME280;48772;55.586;37.730;2023-04-27T08:16:24;98699.63;;;21.82;71.92
62712;BME280;48772;55.586;37.730;2023-04-27T08:18:50;98705.44;;;21.92;76.44
62712;BME280;48772;55.586;37.730;2023-04-27T08:21:16;98705.59;;;22.04;74.09
62712;BME280;48772;55.586;37.730;2023-04-27T08:23:42;98720.41;;;22.32;68.52
62712;BME280;48772;55.586;37.730;2023-04-27T08:26:13;98719.22;;;22.78;63.45
62712;BME280;48772;55.586;37.730;2023-04-27T08:28:39;98715.88;;;23.00;61.61
62712;BME280;48772;55.586;37.730;2023-04-27T08:31:04;98715.78;;;22.89;62.59
62712;BME280;48772;55.586;37.730;2023-04-27T08:33:30;98711.81;;;22.67;68.12
62712;BME280;48772;55.586;37.730;2023-04-27T08:35:56;98714.16;;;22.32;72.72
62712;BME280;48772;55.586;37.730;2023-04-27T08:38:22;98722.09;;;22.65;69.62
62712;BME280;48772;55.586;37.730;2023-04-27T08:40:48;98705.38;;;23.04;66.77
62712;BME280;48772;55.586;37.730;2023-04-27T08:43:14;98706.94;;;23.36;65.52
62712;BME280;48772;55.586;37.730;2023-04-27T08:45:47;98716.13;;;23.17;68.08
62712;BME280;48772;55.586;37.730;2023-04-27T08:48:13;98708.53;;;23.43;65.72
62712;BME280;48772;55.586;37.730;2023-04-27T08:50:42;98695.50;;;23.63;66.05
62712;BME280;48772;55.586;37.730;2023-04-27T08:53:16;98696.22;;;23.23;65.47
62712;BME280;48772;55.586;37.730;2023-04-27T08:55:43;98725.84;;;23.31;61.32
62712;BME280;48772;55.586;37.730;2023-04-27T08:58:09;98716.13;;;23.17;60.06
62712;BME280;48772;55.586;37.730;2023-04-27T09:00:39;98718.75;;;23.30;62.20
62712;BME280;48772;55.586;37.730;2023-04-27T09:03:22;98690.72;;;23.77;56.27
62712;BME280;48772;55.586;37.730;2023-04-27T09:05:49;98692.94;;;23.68;54.34
62712;BME280;48772;55.586;37.730;2023-04-27T09:08:15;98700.69;;;24.01;52.32
62712;BME280;48772;55.586;37.730;2023-04-27T09:10:50;98670.34;;;24.38;52.28
62712;BME280;48772;55.586;37.730;2023-04-27T09:13:17;98697.44;;;24.22;51.94
62712;BME280;48772;55.586;37.730;2023-04-27T09:15:46;98704.09;;;24.37;51.30
62712;BME280;48772;55.586;37.730;2023-04-27T09:18:17;98690.00;;;24.29;48.91
62712;BME280;48772;55.586;37.730;2023-04-27T09:20:50;98721.63;;;24.00;47.76
62712;BME280;48772;55.586;37.730;2023-04-27T09:23:33;98704.22;;;23.54;47.94
62712;BME280;48772;55.586;37.730;2023-04-27T09:26:02;98669.38;;;23.44;45.88
62712;BME280;48772;55.586;37.730;2023-04-27T09:28:29;98712.84;;;23.33;47.91
62712;BME280;48772;55.586;37.730;2023-04-27T09:31:00;98710.25;;;23.74;45.68
62712;BME280;48772;55.586;37.730;2023-04-27T09:33:28;98695.13;;;23.78;44.97
62712;BME280;48772;55.586;37.730;2023-04-27T09:35:57;98700.47;;;24.14;45.55
62712;BME280;48772;55.586;37.730;2023-04-27T09:38:25;98714.03;;;24.32;45.55
62712;BME280;48772;55.586;37.730;2023-04-27T09:40:52;98708.53;;;24.09;44.12
62712;BME280;48772;55.586;37.730;2023-04-27T09:43:18;98703.28;;;24.07;46.30
62712;BME280;48772;55.586;37.730;2023-04-27T09:45:44;98687.28;;;24.29;46.68
62712;BME280;48772;55.586;37.730;2023-04-27T09:48:12;98716.03;;;24.66;46.67
62712;BME280;48772;55.586;37.730;2023-04-27T09:50:41;98729.50;;;24.49;43.60
62712;BME280;48772;55.586;37.730;2023-04-27T09:53:09;98705.63;;;24.33;44.06
62712;BME280;48772;55.586;37.730;2023-04-27T09:55:55;98700.97;;;24.11;45.26
62712;BME280;48772;55.586;37.730;2023-04-27T10:06:59;98684.84;;;24.73;41.91
62712;BME280;48772;55.586;37.730;2023-04-27T10:09:27;98693.50;;;25.05;39.48
62712;BME280;48772;55.586;37.730;2023-04-27T10:12:13;98707.44;;;24.10;41.23
62712;BME280;48772;55.586;37.730;2023-04-27T10:14:51;98696.50;;;23.51;43.82
62712;BME280;48772;55.586;37.730;2023-04-27T10:17:17;98719.91;;;22.98;47.74
62712;BME280;48772;55.586;37.730;2023-04-27T10:20:03;98710.66;;;22.56;47.63
62712;BME280;48772;55.586;37.730;2023-04-27T10:22:44;98728.00;;;22.24;49.26
62712;BME280;48772;55.586;37.730;2023-04-27T10:25:17;98730.50;;;21.94;50.27
62712;BME280;48772;55.586;37.730;2023-04-27T10:27:59;98704.19;;;21.44;55.31
62712;BME280;48772;55.586;37.730;2023-04-27T10:30:36;98733.25;;;21.24;59.45
62712;BME280;48772;55.586;37.730;2023-04-27T10:33:08;98741.03;;;21.01;61.44
62712;BME280;48772;55.586;37.730;2023-04-27T10:35:43;98735.16;;;20.85;63.56
62712;BME280;48772;55.586;37.730;2023-04-27T10:40:58;98788.78;;;19.84;100.00
62712;BME280;48772;55.586;37.730;2023-04-27T10:43:29;98768.44;;;18.64;100.00
62712;BME280;48772;55.586;37.730;2023-04-27T10:46:09;98787.41;;;18.29;100.00
62712;BME280;48772;55.586;37.730;2023-04-27T10:48:39;98774.69;;;18.23;100.00
62712;BME280;48772;55.586;37.730;2023-04-27T10:51:06;98778.25;;;17.88;100.00
62712;BME280;48772;55.586;37.730;2023-04-27T10:53:38;98798.78;;;17.53;100.00
62712;BME280;48772;55.586;37.730;2023-04-27T10:56:04;98840.66;;;17.27;100.00
62712;BME280;48772;55.586;37.730;2023-04-27T10:58:32;98820.75;;;17.28;100.00
62712;BME280;48772;55.586;37.730;2023-04-27T11:00:58;98794.28;;;17.02;100.00
62712;BME280;48772;55.586;37.730;2023-04-27T11:03:24;98803.94;;;17.40;100.00
62712;BME280;48772;55.586;37.730;2023-04-27T11:06:08;98787.31;;;18.01;100.00
62712;BME280;48772;55.586;37.730;2023-04-27T11:08:42;98773.50;;;18.74;100.00
62712;BME280;48772;55.586;37.730;2023-04-27T11:11:13;98770.59;;;19.71;100.00
62712;BME280;48772;55.586;37.730;2023-04-27T11:13:39;98761.03;;;20.48;100.00
62712;BME280;48772;55.586;37.730;2023-04-27T11:16:08;98763.97;;;20.99;99.05
62712;BME280;48772;55.586;37.730;2023-04-27T11:18:36;98735.81;;;20.93;100.00
62712;BME280;48772;55.586;37.730;2023-04-27T11:21:10;98756.44;;;21.07;100.00
62712;BME280;48772;55.586;37.730;2023-04-27T11:23:37;98750.16;;;21.13;100.00
62712;BME280;48772;55.586;37.730;2023-04-27T11:26:11;98766.47;;;21.00;98.50
62712;BME280;48772;55.586;37.730;2023-04-27T11:28:37;98762.59;;;21.47;95.27
62712;BME280;48772;55.586;37.730;2023-04-27T11:31:03;98753.56;;;22.10;93.90
62712;BME280;48772;55.586;37.730;2023-04-27T11:33:29;98763.78;;;22.14;93.81
62712;BME280;48772;55.586;37.730;2023-04-27T11:35:55;98768.97;;;22.22;88.49
62712;BME280;48772;55.586;37.730;2023-04-27T11:38:22;98761.16;;;22.01;94.04
62712;BME280;48772;55.586;37.730;2023-04-27T11:41:06;98755.78;;;21.88;88.69
62712;BME280;48772;55.586;37.730;2023-04-27T11:43:32;98760.66;;;22.17;80.98
62712;BME280;48772;55.586;37.730;2023-04-27T11:46:03;98742.00;;;22.59;77.11
62712;BME280;48772;55.586;37.730;2023-04-27T11:48:29;98746.72;;;22.38;75.40
62712;BME280;48772;55.586;37.730;2023-04-27T11:50:56;98742.91;;;22.15;81.57
62712;BME280;48772;55.586;37.730;2023-04-27T11:53:31;98731.19;;;22.45;75.84
62712;BME280;48772;55.586;37.730;2023-04-27T11:56:00;98721.91;;;23.02;71.49
62712;BME280;48772;55.586;37.730;2023-04-27T11:58:46;98726.22;;;23.34;78.94
62712;BME280;48772;55.586;37.730;2023-04-27T12:01:33;98722.50;;;23.29;65.43
62712;BME280;48772;55.586;37.730;2023-04-27T12:04:18;98717.94;;;23.05;61.51
62712;BME280;48772;55.586;37.730;2023-04-27T12:06:44;98698.66;;;22.64;61.94
62712;BME280;48772;55.586;37.730;2023-04-27T12:09:10;98738.59;;;22.88;52.21
62712;BME280;48772;55.586;37.730;2023-04-27T12:11:36;98702.16;;;22.71;52.29
62712;BME280;48772;55.586;37.730;2023-04-27T12:14:02;98709.56;;;22.82;54.95
62712;BME280;48772;55.586;37.730;2023-04-27T12:16:46;98708.50;;;22.65;59.05
62712;BME280;48772;55.586;37.730;2023-04-27T12:19:12;98717.47;;;22.65;55.92
62712;BME280;48772;55.586;37.730;2023-04-27T12:21:38;98726.47;;;22.34;56.84
62712;BME280;48772;55.586;37.730;2023-04-27T12:24:04;98732.91;;;21.71;60.02
62712;BME280;48772;55.586;37.730;2023-04-27T12:26:30;98656.66;;;21.29;60.21
62712;BME280;48772;55.586;37.730;2023-04-27T12:28:56;98717.25;;;21.73;62.33
62712;BME280;48772;55.586;37.730;2023-04-27T12:31:22;98716.25;;;22.30;58.09
62712;BME280;48772;55.586;37.730;2023-04-27T12:33:50;98702.63;;;22.36;57.72
62712;BME280;48772;55.586;37.730;2023-04-27T12:36:16;98701.88;;;22.54;56.72
62712;BME280;48772;55.586;37.730;2023-04-27T12:38:42;98699.72;;;22.63;55.35
62712;BME280;48772;55.586;37.730;2023-04-27T12:41:25;98685.53;;;22.61;55.40
62712;BME280;48772;55.586;37.730;2023-04-27T12:43:51;98699.66;;;22.69;54.12
62712;BME280;48772;55.586;37.730;2023-04-27T12:46:17;98712.28;;;22.82;52.70
62712;BME280;48772;55.586;37.730;2023-04-27T12:49:02;98698.94;;;22.98;51.59
62712;BME280;48772;55.586;37.730;2023-04-27T12:51:27;98698.91;;;23.05;51.04
62712;BME280;48772;55.586;37.730;2023-04-27T12:53:53;98691.91;;;23.33;51.80
62712;BME280;48772;55.586;37.730;2023-04-27T12:56:19;98700.69;;;22.93;50.31
62712;BME280;48772;55.586;37.730;2023-04-27T12:59:04;98694.59;;;22.23;53.67
62712;BME280;48772;55.586;37.730;2023-04-27T13:01:30;98692.38;;;22.38;55.16